MET'MAP v2.0
soon released !

Expected late october,
this new version will be
more efficient, smarter,
and hosted on a brand new
server x3 powerfull...
...and still free !


Not compatible ?
Try the mobile version !

LOG IN : | Subscribe | Disclaimer | Who is Orbifly ? |
ICAO code :
Legend : VFR Marginal VFR IFR Intensive IFR Very Intensive IFR
Visi :
Ceiling :
>= 8 km
>= 3000ft
5 to 8 km
1000 to 3000 ft
1500m to 5 km
500 to 1000 ft
800 to 1500m
200 to 500 ft
< 800m
< 200 ft

METAR - ETMN Cuxhaven Nordholz Sea AB - 30 Mar 2020 12:16 UTC - Data Source NOAA   


- Airport Elevation : 74 ft
- IATA code : NDZ
- No reported NOTAMs.


ETMN - Cuxhaven Nordholz Sea AB

Latest METAR recorded : 2015/08/11 07:20 ETMN 110720Z 22001KT 9999 FEW002 BKN250 20/18 Q1017 BLU+BLU+
TAF TAF ETMN
Valid from the 30 at 08:00 until the 30 at 17:00 UTC


300715Z 3008/3017 28010KT 9999 NSW SCT015 BKN080
TEMPO 3008/3013 34015KT 6000 -RA BKN010 BKN020

Source NOAA


MET'MAP, your aeronautical weather chart ! - Copyright ORBIFLY December 2007

Programming & Development : Alexandra Zaïnal
Co-Developer : Marc-Olivier Méhu
Technical & hardware support : Manuel Goepfert
Concept & Financing : Baudouin d'Aumeries